createdAt,value
2022-12-03T00:02:15.106Z,49.28
2022-12-03T00:04:42.948Z,49.56
2022-12-03T00:07:09.984Z,49.72
2022-12-03T00:09:36.574Z,49.56
2022-12-03T00:12:03.284Z,49.09
2022-12-03T00:14:29.853Z,49.58
2022-12-03T00:16:56.477Z,49.58
2022-12-03T00:19:23.037Z,48.80
2022-12-03T00:21:50.180Z,49.66
2022-12-03T00:24:17.829Z,48.86
2022-12-03T00:26:44.697Z,49.05
2022-12-03T00:29:11.460Z,49.02
2022-12-03T00:31:38.058Z,49.54
2022-12-03T00:34:04.845Z,49.50
2022-12-03T00:36:31.461Z,49.36
2022-12-03T00:38:57.983Z,48.82
2022-12-03T00:41:24.712Z,49.20
2022-12-03T00:43:51.309Z,49.56
2022-12-03T00:46:21.334Z,49.19
2022-12-03T00:48:48.654Z,48.96
2022-12-03T00:51:15.435Z,49.38
2022-12-03T00:53:42.030Z,49.21
2022-12-03T00:56:09.117Z,48.95
2022-12-03T00:58:35.700Z,49.15
2022-12-03T01:01:02.469Z,49.00
2022-12-03T01:03:30.236Z,48.54
2022-12-03T01:05:57.397Z,48.62
2022-12-03T01:08:24.177Z,48.85
2022-12-03T01:10:50.880Z,49.20
2022-12-03T01:13:18.463Z,48.52
2022-12-03T01:15:45.456Z,48.21
2022-12-03T01:18:12.142Z,48.60
2022-12-03T01:20:38.853Z,48.54
2022-12-03T01:23:05.522Z,48.42
2022-12-03T01:25:32.693Z,48.31
2022-12-03T01:27:59.248Z,48.51
2022-12-03T01:30:25.837Z,48.67
2022-12-03T01:32:52.706Z,48.87
2022-12-03T01:35:19.597Z,49.45
2022-12-03T01:37:46.151Z,48.82
2022-12-03T01:40:15.720Z,49.14
2022-12-03T01:42:42.480Z,48.95
2022-12-03T01:45:20.128Z,49.82
2022-12-03T01:47:47.242Z,49.70
2022-12-03T01:50:21.435Z,49.58
2022-12-03T01:52:48.376Z,49.50
2022-12-03T01:55:17.816Z,50.16
2022-12-03T01:57:50.661Z,49.47
2022-12-03T02:00:23.135Z,50.15
2022-12-03T02:02:53.163Z,49.13
2022-12-03T02:05:21.989Z,49.78
2022-12-03T02:07:48.615Z,49.52
2022-12-03T02:10:17.237Z,49.27
2022-12-03T02:12:52.800Z,49.19
2022-12-03T02:15:19.724Z,48.69
2022-12-03T02:17:46.343Z,48.51
2022-12-03T02:20:14.678Z,48.83
2022-12-03T02:22:47.946Z,48.74
2022-12-03T02:25:14.638Z,48.96
2022-12-03T02:27:41.902Z,48.28
2022-12-03T02:30:09.399Z,48.47
2022-12-03T02:32:36.693Z,48.54
2022-12-03T02:35:03.419Z,47.89
2022-12-03T02:37:33.353Z,47.97
2022-12-03T02:40:07.034Z,48.51
2022-12-03T02:42:36.862Z,47.78
2022-12-03T02:45:06.845Z,48.21
2022-12-03T02:47:36.254Z,48.12
2022-12-03T02:50:04.396Z,47.87
2022-12-03T02:52:31.125Z,47.76
2022-12-03T02:54:58.308Z,47.65
2022-12-03T02:57:27.265Z,47.04
2022-12-03T02:59:53.825Z,46.78
2022-12-03T03:02:21.602Z,46.79
2022-12-03T03:04:50.914Z,46.67
2022-12-03T03:07:17.929Z,46.26
2022-12-03T03:09:47.357Z,46.40
2022-12-03T03:12:14.179Z,46.90
2022-12-03T03:14:45.912Z,46.77
2022-12-03T03:17:12.699Z,46.63
2022-12-03T03:19:39.744Z,46.35
2022-12-03T03:22:06.410Z,46.70
2022-12-03T03:24:33.143Z,46.55
2022-12-03T03:27:00.967Z,46.75
2022-12-03T03:29:28.341Z,46.15
2022-12-03T03:31:55.299Z,46.07
2022-12-03T03:34:21.981Z,46.89
2022-12-03T03:36:49.085Z,46.81
2022-12-03T03:39:15.934Z,46.54
2022-12-03T03:41:45.667Z,46.61
2022-12-03T03:44:12.667Z,46.85
2022-12-03T03:46:39.816Z,46.51
2022-12-03T03:49:06.988Z,46.76
2022-12-03T03:51:34.827Z,46.79
2022-12-03T03:54:02.374Z,47.68
2022-12-03T03:56:30.276Z,47.08
2022-12-03T03:58:56.981Z,47.42
2022-12-03T04:01:24.333Z,48.19
2022-12-03T04:03:52.528Z,48.46
2022-12-03T04:06:19.533Z,48.25
2022-12-03T04:08:46.229Z,48.34
2022-12-03T04:11:31.498Z,48.79
2022-12-03T04:13:58.003Z,48.27
2022-12-03T04:16:27.757Z,48.88
2022-12-03T04:18:54.488Z,48.62
2022-12-03T04:21:41.601Z,49.14
2022-12-03T04:24:11.149Z,49.61
2022-12-03T04:26:56.597Z,49.46
2022-12-03T04:29:23.558Z,49.60
2022-12-03T04:32:08.739Z,49.96
2022-12-03T04:34:54.264Z,49.83
2022-12-03T04:37:23.068Z,50.03
2022-12-03T04:39:49.887Z,49.97
2022-12-03T04:42:16.677Z,50.02
2022-12-03T04:44:43.776Z,50.16
2022-12-03T04:47:16.150Z,50.63
2022-12-03T04:49:44.731Z,50.58
2022-12-03T04:52:12.982Z,50.87
2022-12-03T04:54:41.207Z,50.32
2022-12-03T04:57:08.700Z,50.46
2022-12-03T04:59:36.089Z,50.89
2022-12-03T05:02:06.435Z,50.77
2022-12-03T05:04:33.980Z,50.74
2022-12-03T05:07:00.556Z,51.13
2022-12-03T05:09:27.548Z,51.58
2022-12-03T05:11:54.174Z,51.32
2022-12-03T05:14:21.379Z,51.65
2022-12-03T05:16:48.011Z,51.75
2022-12-03T05:19:19.939Z,51.83
2022-12-03T05:21:46.847Z,51.79
2022-12-03T05:24:14.214Z,51.73
2022-12-03T05:26:41.074Z,51.80
2022-12-03T05:29:07.693Z,52.00
2022-12-03T05:31:34.251Z,51.97
2022-12-03T05:34:00.838Z,52.11
2022-12-03T05:36:28.270Z,52.07
2022-12-03T05:38:55.125Z,52.20
2022-12-03T05:41:40.711Z,51.98
2022-12-03T05:44:07.159Z,52.55
2022-12-03T05:46:33.874Z,52.36
2022-12-03T05:49:00.627Z,52.72
2022-12-03T05:51:43.053Z,52.70
2022-12-03T05:54:09.750Z,52.68
2022-12-03T05:56:36.548Z,52.27
2022-12-03T05:59:03.551Z,52.36
2022-12-03T06:01:30.603Z,50.42
2022-12-03T06:03:57.999Z,46.56
2022-12-03T06:06:24.652Z,45.49
2022-12-03T06:08:51.317Z,44.64
2022-12-03T06:11:18.659Z,44.79
2022-12-03T06:13:45.373Z,44.69
2022-12-03T06:16:11.979Z,44.54
2022-12-03T06:18:39.695Z,44.27
2022-12-03T06:21:06.929Z,44.29
2022-12-03T06:23:33.803Z,44.25
2022-12-03T06:26:01.705Z,44.04
2022-12-03T06:28:28.341Z,43.91
2022-12-03T06:30:55.267Z,44.21
2022-12-03T06:33:21.855Z,43.94
2022-12-03T06:35:48.652Z,44.06
2022-12-03T06:38:15.392Z,44.18
2022-12-03T06:40:42.089Z,43.93
2022-12-03T06:43:09.205Z,44.13
2022-12-03T06:45:36.353Z,44.05
2022-12-03T06:48:03.033Z,43.96
2022-12-03T06:50:29.572Z,44.09
2022-12-03T06:52:57.315Z,43.86
2022-12-03T06:55:24.361Z,43.99
2022-12-03T06:57:53.075Z,43.86
2022-12-03T07:00:21.372Z,43.68
2022-12-03T07:02:47.987Z,44.04
2022-12-03T07:05:14.930Z,44.05
2022-12-03T07:07:41.616Z,44.05
2022-12-03T07:10:09.150Z,44.09
2022-12-03T07:12:35.799Z,43.92
2022-12-03T07:15:02.431Z,43.73
2022-12-03T07:17:29.873Z,43.54
2022-12-03T07:19:56.492Z,43.74
2022-12-03T07:22:23.171Z,44.11
2022-12-03T07:24:49.719Z,44.00
2022-12-03T07:27:16.478Z,44.18
2022-12-03T07:29:43.670Z,44.41
2022-12-03T07:32:10.789Z,44.17
2022-12-03T07:34:37.737Z,44.29
2022-12-03T07:37:04.450Z,44.61
2022-12-03T07:39:31.970Z,44.61
2022-12-03T07:41:58.613Z,44.24
2022-12-03T07:44:25.149Z,44.22
2022-12-03T07:46:52.025Z,44.20
2022-12-03T07:49:18.658Z,43.68
2022-12-03T07:51:54.372Z,44.21
2022-12-03T07:54:21.605Z,43.99
2022-12-03T07:56:48.848Z,43.93
2022-12-03T07:59:16.679Z,44.36
2022-12-03T08:01:43.610Z,44.07
2022-12-03T08:04:12.794Z,44.49
2022-12-03T08:06:39.470Z,44.42
2022-12-03T08:09:08.102Z,44.30
2022-12-03T08:11:36.620Z,44.66
2022-12-03T08:14:14.454Z,44.46
2022-12-03T08:16:44.487Z,44.16
2022-12-03T08:19:12.766Z,44.69
2022-12-03T08:21:40.042Z,44.24
2022-12-03T08:24:18.764Z,44.18
2022-12-03T08:26:47.430Z,44.65
2022-12-03T08:29:17.468Z,43.98
2022-12-03T08:31:52.350Z,44.21
2022-12-03T08:34:24.502Z,44.59
2022-12-03T08:37:02.278Z,44.57
2022-12-03T08:39:39.420Z,44.29
2022-12-03T08:42:42.365Z,44.20
2022-12-03T08:45:28.195Z,44.36
2022-12-03T08:47:59.988Z,43.99
2022-12-03T08:50:33.061Z,44.52
2022-12-03T08:53:29.359Z,44.36
2022-12-03T08:56:01.554Z,44.30
2022-12-03T08:58:33.389Z,44.59
2022-12-03T09:01:28.915Z,44.59
2022-12-03T09:03:59.594Z,44.55
2022-12-03T09:06:26.207Z,44.17
2022-12-03T09:08:52.873Z,44.42
2022-12-03T09:11:20.854Z,44.71
2022-12-03T09:13:47.510Z,44.86
2022-12-03T09:16:14.169Z,44.44
2022-12-03T09:18:41.906Z,44.46
2022-12-03T09:21:08.523Z,44.56
2022-12-03T09:23:35.120Z,45.00
2022-12-03T09:26:01.831Z,44.96
2022-12-03T09:28:28.497Z,44.67
2022-12-03T09:30:55.054Z,44.67
2022-12-03T09:33:21.777Z,44.71
2022-12-03T09:35:48.525Z,44.63
2022-12-03T09:38:15.184Z,44.31
2022-12-03T09:40:42.126Z,44.50
2022-12-03T09:43:09.055Z,44.54
2022-12-03T09:45:35.755Z,44.57
2022-12-03T09:48:04.315Z,44.79
2022-12-03T09:50:31.343Z,44.70
2022-12-03T09:53:01.920Z,44.89
2022-12-03T09:55:30.572Z,44.86
2022-12-03T09:57:57.883Z,44.75
2022-12-03T10:00:27.373Z,44.79
2022-12-03T10:02:57.655Z,44.52
2022-12-03T10:05:24.748Z,44.97
2022-12-03T10:07:52.280Z,44.84
2022-12-03T10:10:22.061Z,44.64
2022-12-03T10:12:52.968Z,44.54
2022-12-03T10:15:22.769Z,44.94
2022-12-03T10:17:52.856Z,45.30
2022-12-03T10:20:22.341Z,44.87
2022-12-03T10:22:49.356Z,45.22
2022-12-03T10:25:18.856Z,45.35
2022-12-03T10:28:05.245Z,45.65
2022-12-03T10:30:32.014Z,45.80
2022-12-03T10:32:59.176Z,45.38
2022-12-03T10:35:37.624Z,45.98
2022-12-03T10:38:06.470Z,45.69
2022-12-03T10:40:35.316Z,46.24
2022-12-03T10:43:21.790Z,45.88
2022-12-03T10:46:11.465Z,45.82
2022-12-03T10:48:40.357Z,45.79
2022-12-03T10:51:18.213Z,46.19
2022-12-03T10:53:44.923Z,46.34
2022-12-03T10:56:16.507Z,46.23
2022-12-03T10:58:43.265Z,46.04
2022-12-03T11:01:19.074Z,46.23
2022-12-03T11:03:45.975Z,46.67
2022-12-03T11:06:15.909Z,46.19
2022-12-03T11:08:44.274Z,46.30
2022-12-03T11:11:37.116Z,46.31
2022-12-03T11:14:04.512Z,46.48
2022-12-03T11:16:40.082Z,46.79
2022-12-03T11:19:12.537Z,46.62
2022-12-03T11:22:04.281Z,46.61
2022-12-03T11:24:36.317Z,46.02
2022-12-03T11:27:02.858Z,46.47
2022-12-03T11:29:53.449Z,46.38
2022-12-03T11:32:38.407Z,45.64
2022-12-03T11:35:24.562Z,45.72
2022-12-03T11:37:51.343Z,45.77
2022-12-03T11:40:19.925Z,45.67
2022-12-03T11:42:47.494Z,45.36
2022-12-03T11:45:37.159Z,45.34
2022-12-03T11:48:03.785Z,44.47
2022-12-03T11:50:40.945Z,44.34
2022-12-03T11:53:07.897Z,44.23
2022-12-03T11:55:37.882Z,44.41
2022-12-03T11:58:13.404Z,44.06
2022-12-03T12:00:49.123Z,43.68
2022-12-03T12:03:46.354Z,43.89
2022-12-03T12:06:14.293Z,43.75
2022-12-03T12:08:55.688Z,43.55
2022-12-03T12:11:27.005Z,43.54
2022-12-03T12:13:56.249Z,43.33
2022-12-03T12:16:36.748Z,43.28
2022-12-03T12:19:31.905Z,43.32
2022-12-03T12:22:28.762Z,42.76
2022-12-03T12:25:01.290Z,43.15
2022-12-03T12:27:37.889Z,42.86
2022-12-03T12:30:17.537Z,42.77
2022-12-03T12:33:04.042Z,42.79
2022-12-03T12:35:32.765Z,42.73
2022-12-03T12:38:10.812Z,42.59
2022-12-03T12:40:39.789Z,42.43
2022-12-03T12:43:25.153Z,42.37
2022-12-03T12:45:56.399Z,42.16
2022-12-03T12:48:34.877Z,42.27
2022-12-03T12:51:10.178Z,41.98
2022-12-03T12:53:39.584Z,42.00
2022-12-03T12:56:16.147Z,41.68
2022-12-03T12:58:43.290Z,41.95
2022-12-03T13:01:29.517Z,41.62
2022-12-03T13:03:57.415Z,41.35
2022-12-03T13:06:27.449Z,41.62
2022-12-03T13:08:54.603Z,41.48
2022-12-03T13:11:45.998Z,41.28
2022-12-03T13:14:19.600Z,41.34
2022-12-03T13:16:47.958Z,41.28
2022-12-03T13:19:23.655Z,41.35
2022-12-03T13:21:51.973Z,41.18
2022-12-03T13:24:42.917Z,41.00
2022-12-03T13:27:19.549Z,41.06
2022-12-03T13:29:49.148Z,41.23
2022-12-03T13:32:20.774Z,41.12
2022-12-03T13:34:47.916Z,41.18
2022-12-03T13:37:23.529Z,41.26
2022-12-03T13:39:54.025Z,41.00
2022-12-03T13:42:40.920Z,41.51
2022-12-03T13:45:16.496Z,41.67
2022-12-03T13:47:49.201Z,41.44
2022-12-03T13:50:36.065Z,41.53
2022-12-03T13:53:21.887Z,41.56
2022-12-03T13:55:51.854Z,41.64
2022-12-03T13:58:18.460Z,41.63
2022-12-03T14:00:45.455Z,41.55
2022-12-03T14:03:12.329Z,41.64
2022-12-03T14:05:39.002Z,41.90
2022-12-03T14:08:06.160Z,41.91
2022-12-03T14:10:33.532Z,41.85
2022-12-03T14:13:00.116Z,41.64
2022-12-03T14:15:27.719Z,41.62
2022-12-03T14:17:54.290Z,41.57
2022-12-03T14:20:21.658Z,41.82
2022-12-03T14:22:48.203Z,41.91
2022-12-03T14:25:15.403Z,42.02
2022-12-03T14:27:41.981Z,42.14
2022-12-03T14:30:09.767Z,42.26
2022-12-03T14:32:37.450Z,42.45
2022-12-03T14:35:09.651Z,42.42
2022-12-03T14:37:36.901Z,40.36
2022-12-03T14:40:04.889Z,40.03
2022-12-03T14:42:31.458Z,40.93
2022-12-03T14:44:58.011Z,41.24
2022-12-03T14:47:24.623Z,41.45
2022-12-03T14:49:52.441Z,41.62
2022-12-03T14:52:19.717Z,41.83
2022-12-03T14:54:46.823Z,41.72
2022-12-03T14:57:14.935Z,41.96
2022-12-03T14:59:42.667Z,42.06
2022-12-03T15:02:10.257Z,42.12
2022-12-03T15:04:37.481Z,42.21
2022-12-03T15:07:04.323Z,41.86
2022-12-03T15:09:32.490Z,40.68
2022-12-03T15:12:00.006Z,39.33
2022-12-03T15:14:26.746Z,37.73
2022-12-03T15:16:53.508Z,38.75
2022-12-03T15:19:20.530Z,38.61
2022-12-03T15:21:47.765Z,39.31
2022-12-03T15:24:14.469Z,39.02
2022-12-03T15:26:41.079Z,39.55
2022-12-03T15:29:07.703Z,40.19
2022-12-03T15:31:34.529Z,39.89
2022-12-03T15:34:01.847Z,40.64
2022-12-03T15:36:28.764Z,40.89
2022-12-03T15:38:56.403Z,40.93
2022-12-03T15:41:28.757Z,40.80
2022-12-03T15:43:58.948Z,40.86
2022-12-03T15:46:26.164Z,41.10
2022-12-03T15:48:53.355Z,41.13
2022-12-03T15:51:19.969Z,41.45
2022-12-03T15:53:46.583Z,41.62
2022-12-03T15:56:13.273Z,41.03
2022-12-03T15:58:41.013Z,41.22
2022-12-03T16:01:08.943Z,41.46
2022-12-03T16:03:36.313Z,41.47
2022-12-03T16:06:02.963Z,41.88
2022-12-03T16:08:29.686Z,41.58
2022-12-03T16:10:57.227Z,41.49
2022-12-03T16:13:23.876Z,41.66
2022-12-03T16:15:50.473Z,41.51
2022-12-03T16:18:17.829Z,41.48
2022-12-03T16:20:44.653Z,42.09
2022-12-03T16:23:11.302Z,41.77
2022-12-03T16:25:38.847Z,41.74
2022-12-03T16:28:06.176Z,42.16
2022-12-03T16:30:32.909Z,42.10
2022-12-03T16:32:59.826Z,41.96
2022-12-03T16:35:26.546Z,41.73
2022-12-03T16:37:53.151Z,41.95
2022-12-03T16:40:19.717Z,41.84
2022-12-03T16:42:46.548Z,41.85
2022-12-03T16:45:31.701Z,42.17
2022-12-03T16:47:58.292Z,41.76
2022-12-03T16:50:29.882Z,42.17
2022-12-03T16:52:57.583Z,41.98
2022-12-03T16:55:25.133Z,42.39
2022-12-03T16:57:51.975Z,42.39
2022-12-03T17:00:21.673Z,42.39
2022-12-03T17:02:49.419Z,42.30
2022-12-03T17:05:16.243Z,42.04
2022-12-03T17:07:43.073Z,42.47
2022-12-03T17:10:11.115Z,42.12
2022-12-03T17:13:07.849Z,42.22
2022-12-03T17:15:24.858Z,42.38
2022-12-03T17:17:53.199Z,42.65
2022-12-03T17:20:20.085Z,42.58
2022-12-03T17:22:47.049Z,42.43
2022-12-03T17:25:13.673Z,42.66
2022-12-03T17:27:45.088Z,42.09
2022-12-03T17:30:12.877Z,42.18
2022-12-03T17:32:39.518Z,42.29
2022-12-03T17:35:10.697Z,42.74
2022-12-03T17:37:39.431Z,42.25
2022-12-03T17:40:07.794Z,42.44
2022-12-03T17:42:34.653Z,42.62
2022-12-03T17:45:01.283Z,42.37
2022-12-03T17:47:28.525Z,42.74
2022-12-03T17:49:55.383Z,42.52
2022-12-03T17:52:22.348Z,42.84
2022-12-03T17:55:09.905Z,42.21
2022-12-03T17:57:35.733Z,42.29
2022-12-03T18:00:02.477Z,42.34
2022-12-03T18:02:38.717Z,42.71
2022-12-03T18:05:05.733Z,42.33
2022-12-03T18:07:32.314Z,42.38
2022-12-03T18:09:59.194Z,42.33
2022-12-03T18:12:25.865Z,42.32
2022-12-03T18:14:52.484Z,42.28
2022-12-03T18:17:19.414Z,42.43
2022-12-03T18:19:47.288Z,42.37
2022-12-03T18:22:15.766Z,42.50
2022-12-03T18:24:44.959Z,42.86
2022-12-03T18:27:12.945Z,42.83
2022-12-03T18:29:40.070Z,42.48
2022-12-03T18:32:27.281Z,42.31
2022-12-03T18:34:55.768Z,42.27
2022-12-03T18:37:27.155Z,42.43
2022-12-03T18:39:54.227Z,42.62
2022-12-03T18:42:23.058Z,42.55
2022-12-03T18:44:50.881Z,42.74
2022-12-03T18:47:20.842Z,42.49
2022-12-03T18:49:48.115Z,42.43
2022-12-03T18:52:16.284Z,42.79
2022-12-03T18:54:43.302Z,42.92
2022-12-03T18:57:11.973Z,42.93
2022-12-03T18:59:39.108Z,42.53
2022-12-03T19:02:07.559Z,42.80
2022-12-03T19:04:34.554Z,42.47
2022-12-03T19:07:01.147Z,42.54
2022-12-03T19:09:30.432Z,42.97
2022-12-03T19:11:56.969Z,42.47
2022-12-03T19:14:23.571Z,42.49
2022-12-03T19:16:50.580Z,42.67
2022-12-03T19:19:17.275Z,43.02
2022-12-03T19:21:43.924Z,42.94
2022-12-03T19:24:26.760Z,43.14
2022-12-03T19:26:55.324Z,42.83
2022-12-03T19:29:24.926Z,43.24
2022-12-03T19:31:51.968Z,43.16
2022-12-03T19:34:19.173Z,43.12
2022-12-03T19:36:45.863Z,42.90
2022-12-03T19:39:12.408Z,42.95
2022-12-03T19:41:41.051Z,42.76
2022-12-03T19:44:10.917Z,42.85
2022-12-03T19:46:38.490Z,42.55
2022-12-03T19:49:06.156Z,42.34
2022-12-03T19:51:35.325Z,42.46
2022-12-03T19:54:06.535Z,42.05
2022-12-03T19:56:34.215Z,41.91
2022-12-03T19:59:00.919Z,41.94
2022-12-03T20:01:32.025Z,41.60
2022-12-03T20:04:00.384Z,41.76
2022-12-03T20:06:32.059Z,41.76
2022-12-03T20:09:11.345Z,41.74
2022-12-03T20:11:39.817Z,41.63
2022-12-03T20:14:08.903Z,37.30
2022-12-03T20:16:35.767Z,36.95
2022-12-03T20:19:05.425Z,38.22
2022-12-03T20:21:34.332Z,38.41
2022-12-03T20:24:01.427Z,38.57
2022-12-03T20:26:28.512Z,39.23
2022-12-03T20:28:55.980Z,39.40
2022-12-03T20:31:24.956Z,39.83
2022-12-03T20:33:52.767Z,40.33
2022-12-03T20:36:22.584Z,40.30
2022-12-03T20:38:53.275Z,40.34
2022-12-03T20:41:20.720Z,40.97
2022-12-03T20:43:47.746Z,40.74
2022-12-03T20:46:16.928Z,41.16
2022-12-03T20:48:44.395Z,41.21
2022-12-03T20:51:14.199Z,41.39
2022-12-03T20:53:41.242Z,41.37
2022-12-03T20:56:09.683Z,41.44
2022-12-03T20:58:38.627Z,41.59
2022-12-03T21:01:17.270Z,41.73
2022-12-03T21:03:45.189Z,41.59
2022-12-03T21:06:12.382Z,41.17
2022-12-03T21:08:41.921Z,41.53
2022-12-03T21:11:14.153Z,41.61
2022-12-03T21:13:41.633Z,41.45
2022-12-03T21:16:12.004Z,41.30
2022-12-03T21:18:39.318Z,41.33
2022-12-03T21:21:06.684Z,41.29
2022-12-03T21:23:34.178Z,41.34
2022-12-03T21:26:02.911Z,41.36
2022-12-03T21:28:30.305Z,41.15
2022-12-03T21:31:03.900Z,41.34
2022-12-03T21:33:32.141Z,41.29
2022-12-03T21:36:00.888Z,41.33
2022-12-03T21:38:28.637Z,41.33
2022-12-03T21:40:55.383Z,41.14
2022-12-03T21:43:22.110Z,41.34
2022-12-03T21:45:49.206Z,40.86
2022-12-03T21:48:16.252Z,40.93
2022-12-03T21:50:43.188Z,40.95
2022-12-03T21:53:09.945Z,41.03
2022-12-03T21:55:41.413Z,40.95
2022-12-03T21:58:08.639Z,40.91
2022-12-03T22:00:36.326Z,40.65
2022-12-03T22:03:03.028Z,40.82
2022-12-03T22:05:29.624Z,40.81
2022-12-03T22:07:56.329Z,40.85
2022-12-03T22:10:23.445Z,40.91
2022-12-03T22:12:50.261Z,40.68
2022-12-03T22:15:19.381Z,40.63
2022-12-03T22:17:47.107Z,40.76
2022-12-03T22:20:13.928Z,40.74
2022-12-03T22:22:41.131Z,40.62
2022-12-03T22:25:08.139Z,40.35
2022-12-03T22:27:34.849Z,40.37
2022-12-03T22:30:01.858Z,40.52
2022-12-03T22:32:29.163Z,40.35
2022-12-03T22:34:55.849Z,40.36
2022-12-03T22:37:22.729Z,40.25
2022-12-03T22:39:49.369Z,40.25
2022-12-03T22:42:15.955Z,40.25
2022-12-03T22:44:43.337Z,40.26
2022-12-03T22:47:10.791Z,40.21
2022-12-03T22:49:38.559Z,40.36
2022-12-03T22:52:07.643Z,40.31
2022-12-03T22:54:34.190Z,40.39
2022-12-03T22:57:00.806Z,40.50
2022-12-03T22:59:27.376Z,40.48
2022-12-03T23:01:53.971Z,40.53
2022-12-03T23:04:20.516Z,40.55
2022-12-03T23:06:47.285Z,40.93
2022-12-03T23:09:13.906Z,40.65
2022-12-03T23:11:43.359Z,40.73
2022-12-03T23:14:12.140Z,41.01
2022-12-03T23:16:39.801Z,40.80
2022-12-03T23:19:06.371Z,40.94
2022-12-03T23:21:34.605Z,41.19
2022-12-03T23:24:03.352Z,41.34
2022-12-03T23:26:30.241Z,41.01
2022-12-03T23:28:57.584Z,40.92
2022-12-03T23:31:29.468Z,41.50
2022-12-03T23:33:57.182Z,41.26
2022-12-03T23:36:26.019Z,41.32
2022-12-03T23:38:53.656Z,41.41
2022-12-03T23:41:21.738Z,41.48
2022-12-03T23:43:48.539Z,41.63
2022-12-03T23:46:23.525Z,41.73
2022-12-03T23:48:51.109Z,41.51
2022-12-03T23:51:20.162Z,41.48
2022-12-03T23:53:47.636Z,41.56
2022-12-03T23:56:23.077Z,41.55
2022-12-03T23:58:49.989Z,41.70
